createdAt,value
2018-07-30T00:00:28.721Z,0
2018-07-30T00:01:28.743Z,0
2018-07-30T00:02:43.428Z,0
2018-07-30T00:04:28.821Z,0
2018-07-30T00:05:43.672Z,0
2018-07-30T00:06:28.611Z,0
2018-07-30T00:07:28.891Z,0
2018-07-30T00:08:28.920Z,0
2018-07-30T00:09:58.269Z,0
2018-07-30T00:10:28.470Z,0
2018-07-30T00:11:28.990Z,0
2018-07-30T00:12:28.762Z,0
2018-07-30T00:13:29.048Z,0
2018-07-30T00:14:29.071Z,0
2018-07-30T00:15:43.513Z,0
2018-07-30T00:16:28.866Z,0
2018-07-30T00:17:29.146Z,0
2018-07-30T00:18:29.170Z,0
2018-07-30T00:19:28.943Z,0
2018-07-30T00:20:29.220Z,0
2018-07-30T00:21:29.178Z,0
2018-07-30T00:23:29.342Z,0
2018-07-30T00:24:29.072Z,0
2018-07-30T00:25:43.750Z,0
2018-07-30T00:26:29.114Z,0
2018-07-30T00:27:29.137Z,0
2018-07-30T00:28:29.430Z,0
2018-07-30T00:29:29.445Z,0
2018-07-30T00:30:29.472Z,0
2018-07-30T00:31:29.735Z,0
2018-07-30T00:32:29.530Z,0
2018-07-30T00:33:29.548Z,0
2018-07-30T00:34:29.316Z,0
2018-07-30T00:35:29.597Z,0
2018-07-30T00:36:29.628Z,0
2018-07-30T00:37:29.648Z,0
2018-07-30T00:38:29.673Z,0
2018-07-30T00:39:29.438Z,0
2018-07-30T00:40:29.721Z,0
2018-07-30T00:41:44.413Z,0
2018-07-30T00:42:29.776Z,0
2018-07-30T00:43:29.541Z,0
2018-07-30T00:44:29.824Z,0
2018-07-30T00:45:29.850Z,0
2018-07-30T00:46:29.613Z,0
2018-07-30T00:47:29.905Z,0
2018-07-30T00:48:44.589Z,0
2018-07-30T00:49:44.613Z,0
2018-07-30T00:50:44.389Z,0
2018-07-30T00:51:44.403Z,0
2018-07-30T00:52:29.513Z,0
2018-07-30T00:53:30.148Z,0
2018-07-30T00:54:29.819Z,0
2018-07-30T00:55:44.766Z,0
2018-07-30T00:56:44.563Z,0
2018-07-30T00:57:44.814Z,0
2018-07-30T00:58:29.920Z,0
2018-07-30T00:59:29.939Z,0
2018-07-30T01:00:29.969Z,0
2018-07-30T01:01:30.252Z,0
2018-07-30T01:02:30.028Z,0
2018-07-30T01:04:30.323Z,0
2018-07-30T01:05:30.348Z,0
2018-07-30T01:06:45.035Z,0
2018-07-30T01:07:30.156Z,0
2018-07-30T01:08:30.425Z,0
2018-07-30T01:09:30.196Z,0
2018-07-30T01:10:30.221Z,0
2018-07-30T01:11:30.502Z,0
2018-07-30T01:12:30.267Z,0
2018-07-30T01:13:30.037Z,0
2018-07-30T01:14:30.601Z,0
2018-07-30T01:15:30.343Z,0
2018-07-30T01:16:30.373Z,0
2018-07-30T01:17:30.649Z,0
2018-07-30T01:18:30.461Z,0
2018-07-30T01:19:30.446Z,0
2018-07-30T01:20:30.726Z,0
2018-07-30T01:21:45.571Z,0
2018-07-30T01:22:30.781Z,0
2018-07-30T01:23:30.541Z,0
2018-07-30T01:24:30.309Z,0
2018-07-30T01:25:30.851Z,0
2018-07-30T01:26:30.872Z,0
2018-07-30T01:27:30.897Z,0
2018-07-30T01:28:45.588Z,0
2018-07-30T01:29:30.960Z,0
2018-07-30T01:30:30.465Z,0
2018-07-30T01:31:31.011Z,0
2018-07-30T01:32:31.029Z,0
2018-07-30T01:33:31.049Z,0
2018-07-30T01:34:31.079Z,0
2018-07-30T01:35:31.094Z,0
2018-07-30T01:36:30.352Z,0
2018-07-30T01:37:31.149Z,0
2018-07-30T01:38:31.178Z,0
2018-07-30T01:39:31.205Z,0
2018-07-30T01:40:31.226Z,0
2018-07-30T01:41:31.256Z,0
2018-07-30T01:42:31.273Z,0
2018-07-30T01:43:31.041Z,0
2018-07-30T01:44:45.986Z,0
2018-07-30T01:45:31.091Z,0
2018-07-30T01:46:31.373Z,0
2018-07-30T01:47:31.142Z,0
2018-07-30T01:48:46.086Z,0
2018-07-30T01:49:31.193Z,0
2018-07-30T01:50:45.877Z,0
2018-07-30T01:51:31.249Z,0
2018-07-30T01:52:31.525Z,0
2018-07-30T01:54:31.578Z,0
2018-07-30T01:55:31.874Z,0
2018-07-30T01:56:31.638Z,0
2018-07-30T01:57:46.317Z,0
2018-07-30T01:58:31.673Z,0
2018-07-30T01:59:31.447Z,0
2018-07-30T02:00:46.385Z,0
2018-07-30T02:01:31.755Z,0
2018-07-30T02:02:31.260Z,0
2018-07-30T02:04:31.821Z,0
2018-07-30T02:05:31.590Z,0
2018-07-30T02:06:31.876Z,0
2018-07-30T02:07:31.895Z,0
2018-07-30T02:08:31.926Z,0
2018-07-30T02:09:31.693Z,0
2018-07-30T02:11:32.041Z,0
2018-07-30T02:12:31.762Z,0
2018-07-30T02:13:31.795Z,0
2018-07-30T02:14:32.080Z,0
2018-07-30T02:15:46.764Z,0
2018-07-30T02:16:46.526Z,0
2018-07-30T02:17:32.147Z,0
2018-07-30T02:19:31.943Z,0
2018-07-30T02:21:31.888Z,0
2018-07-30T02:22:32.272Z,0
2018-07-30T02:23:32.297Z,0
2018-07-30T02:24:46.983Z,0
2018-07-30T02:25:31.829Z,0
2018-07-30T02:26:46.776Z,0
2018-07-30T02:27:32.401Z,0
2018-07-30T02:28:32.166Z,0
2018-07-30T02:29:32.189Z,0
2018-07-30T02:30:32.320Z,0
2018-07-30T02:31:47.164Z,0
2018-07-30T02:32:32.265Z,0
2018-07-30T02:33:32.038Z,0
2018-07-30T02:34:32.571Z,0
2018-07-30T02:36:32.628Z,0
2018-07-30T02:37:32.669Z,0
2018-07-30T02:38:32.416Z,4
2018-07-30T02:39:32.695Z,4
2018-07-30T02:40:32.723Z,4
2018-07-30T02:41:47.160Z,0
2018-07-30T02:42:32.516Z,0
2018-07-30T02:43:32.541Z,0
2018-07-30T02:44:32.575Z,4
2018-07-30T02:45:32.593Z,4
2018-07-30T02:46:32.873Z,4
2018-07-30T02:47:32.895Z,4
2018-07-30T02:48:32.946Z,4
2018-07-30T02:49:32.950Z,4
2018-07-30T02:50:47.632Z,4
2018-07-30T02:51:33.005Z,4
2018-07-30T02:52:33.029Z,4
2018-07-30T02:53:33.044Z,8
2018-07-30T02:54:32.556Z,8
2018-07-30T02:55:32.845Z,12
2018-07-30T02:56:32.866Z,12
2018-07-30T02:57:33.317Z,12
2018-07-30T02:58:33.196Z,12
2018-07-30T02:59:47.862Z,16
2018-07-30T03:00:32.968Z,16
2018-07-30T03:01:32.988Z,16
2018-07-30T03:02:33.315Z,16
2018-07-30T03:03:47.954Z,20
2018-07-30T03:04:33.322Z,24
2018-07-30T03:05:33.347Z,24
2018-07-30T03:06:33.365Z,28
2018-07-30T03:08:33.418Z,36
2018-07-30T03:09:33.064Z,32
2018-07-30T03:11:33.501Z,44
2018-07-30T03:12:33.268Z,48
2018-07-30T03:13:33.547Z,52
2018-07-30T03:14:33.053Z,56
2018-07-30T03:15:33.081Z,64
2018-07-30T03:17:33.640Z,72
2018-07-30T03:18:33.672Z,80
2018-07-30T03:19:48.096Z,88
2018-07-30T03:20:33.461Z,92
2018-07-30T03:21:33.485Z,100
2018-07-30T03:22:33.511Z,104
2018-07-30T03:23:33.274Z,108
2018-07-30T03:24:33.559Z,112
2018-07-30T03:25:33.582Z,120
2018-07-30T03:26:33.613Z,132
2018-07-30T03:28:33.662Z,164
2018-07-30T03:29:48.347Z,184
2018-07-30T03:30:48.379Z,204
2018-07-30T03:31:33.758Z,220
2018-07-30T03:32:33.508Z,244
2018-07-30T03:33:48.715Z,292
2018-07-30T03:34:34.067Z,324
2018-07-30T03:35:48.756Z,388
2018-07-30T03:36:34.118Z,424
2018-07-30T03:37:34.146Z,472
2018-07-30T03:38:33.906Z,520
2018-07-30T03:39:34.201Z,572
2018-07-30T03:40:34.267Z,636
2018-07-30T03:41:33.982Z,708
2018-07-30T03:42:34.271Z,768
2018-07-30T03:43:34.293Z,816
2018-07-30T03:44:34.317Z,840
2018-07-30T03:45:34.347Z,856
2018-07-30T03:46:34.370Z,880
2018-07-30T03:47:34.406Z,908
2018-07-30T03:48:34.421Z,920
2018-07-30T03:49:48.850Z,936
2018-07-30T03:50:34.465Z,952
2018-07-30T03:51:48.894Z,988
2018-07-30T03:52:34.557Z,1016
2018-07-30T03:53:34.029Z,1052
2018-07-30T03:54:34.318Z,1076
2018-07-30T03:55:34.590Z,1084
2018-07-30T03:57:34.639Z,1052
2018-07-30T03:58:34.666Z,1028
2018-07-30T03:59:34.690Z,988
2018-07-30T04:00:49.531Z,948
2018-07-30T04:01:34.484Z,928
2018-07-30T04:02:34.508Z,932
2018-07-30T04:03:34.532Z,896
2018-07-30T04:04:34.556Z,816
2018-07-30T04:05:34.837Z,788
2018-07-30T04:06:49.532Z,788
2018-07-30T04:07:34.638Z,792
2018-07-30T04:08:34.661Z,800
2018-07-30T04:09:34.943Z,812
2018-07-30T04:11:34.989Z,848
2018-07-30T04:13:34.785Z,876
2018-07-30T04:14:49.733Z,896
2018-07-30T04:15:35.102Z,908
2018-07-30T04:16:35.116Z,932
2018-07-30T04:17:49.803Z,948
2018-07-30T04:18:34.907Z,964
2018-07-30T04:19:34.680Z,984
2018-07-30T04:20:35.218Z,1000
2018-07-30T04:21:35.243Z,1028
2018-07-30T04:22:35.008Z,1052
2018-07-30T04:23:35.034Z,1072
2018-07-30T04:24:35.317Z,1092
2018-07-30T04:25:34.828Z,1120
2018-07-30T04:26:35.362Z,1148
2018-07-30T04:27:35.144Z,1180
2018-07-30T04:28:35.418Z,1220
2018-07-30T04:30:35.467Z,1304
2018-07-30T04:31:35.508Z,1348
2018-07-30T04:32:49.921Z,1404
2018-07-30T04:33:35.546Z,1444
2018-07-30T04:34:35.310Z,1488
2018-07-30T04:35:35.341Z,1540
2018-07-30T04:36:35.617Z,1604
2018-07-30T04:37:35.646Z,1660
2018-07-30T04:38:50.338Z,1736
2018-07-30T04:39:35.432Z,1784
2018-07-30T04:40:35.720Z,1852
2018-07-30T04:41:50.408Z,1924
2018-07-30T04:42:35.780Z,1964
2018-07-30T04:43:35.543Z,2024
2018-07-30T04:44:35.826Z,2092
2018-07-30T04:45:35.846Z,2160
2018-07-30T04:47:35.897Z,2356
2018-07-30T04:48:35.969Z,2472
2018-07-30T04:49:35.953Z,2612
2018-07-30T04:50:35.726Z,2784
2018-07-30T04:51:35.731Z,2988
2018-07-30T04:52:35.763Z,3208
2018-07-30T04:53:36.042Z,3448
2018-07-30T04:54:50.744Z,3756
2018-07-30T04:55:50.758Z,4000
2018-07-30T04:56:36.117Z,4192
2018-07-30T04:57:35.885Z,4428
2018-07-30T04:58:36.013Z,4656
2018-07-30T04:59:50.854Z,4936
2018-07-30T05:00:36.218Z,5132
2018-07-30T05:01:35.985Z,5416
2018-07-30T05:02:36.014Z,5696
2018-07-30T05:03:51.017Z,6052
2018-07-30T05:04:36.330Z,6268
2018-07-30T05:05:36.096Z,6560
2018-07-30T05:06:36.371Z,6896
2018-07-30T05:07:36.148Z,7264
2018-07-30T05:08:51.090Z,7744
2018-07-30T05:09:36.199Z,8016
2018-07-30T05:10:50.879Z,8468
2018-07-30T05:11:36.512Z,8700
2018-07-30T05:12:36.010Z,9064
2018-07-30T05:13:36.294Z,9476
2018-07-30T05:14:51.237Z,10060
2018-07-30T05:15:36.608Z,10280
2018-07-30T05:16:36.367Z,10460
2018-07-30T05:17:36.398Z,10592
2018-07-30T05:18:36.679Z,10744
2018-07-30T05:19:37.159Z,11020
2018-07-30T05:20:36.731Z,11372
2018-07-30T05:21:36.784Z,11804
2018-07-30T05:22:36.523Z,12248
2018-07-30T05:23:36.807Z,12704
2018-07-30T05:24:36.834Z,12964
2018-07-30T05:25:36.821Z,12992
2018-07-30T05:26:51.547Z,13100
2018-07-30T05:27:51.573Z,13896
2018-07-30T05:28:36.934Z,16064
2018-07-30T05:29:36.705Z,19136
2018-07-30T05:30:36.988Z,13044
2018-07-30T05:31:36.850Z,14308
2018-07-30T05:32:37.046Z,16928
2018-07-30T05:33:36.816Z,13992
2018-07-30T05:35:37.121Z,16088
2018-07-30T05:36:37.151Z,12292
2018-07-30T05:37:37.175Z,10248
2018-07-30T05:38:37.203Z,9244
2018-07-30T05:39:37.241Z,8696
2018-07-30T05:40:37.093Z,8416
2018-07-30T05:42:37.045Z,7724
2018-07-30T05:43:51.995Z,7304
2018-07-30T05:44:37.101Z,7192
2018-07-30T05:45:37.400Z,7152
2018-07-30T05:47:37.441Z,7152
2018-07-30T05:48:37.234Z,7132
2018-07-30T05:49:37.591Z,7124
2018-07-30T05:50:52.181Z,7116
2018-07-30T05:51:37.548Z,7096
2018-07-30T05:52:52.231Z,7032
2018-07-30T05:53:37.606Z,6988
2018-07-30T05:54:37.625Z,6980
2018-07-30T05:55:37.649Z,7000
2018-07-30T05:56:37.677Z,7020
2018-07-30T05:57:37.705Z,7048
2018-07-30T05:58:37.725Z,7056
2018-07-30T05:59:38.330Z,7048
2018-07-30T06:00:37.781Z,7044
2018-07-30T06:01:37.551Z,7032
2018-07-30T06:02:37.835Z,7000
2018-07-30T06:03:37.862Z,6960
2018-07-30T06:04:37.891Z,6896
2018-07-30T06:05:52.807Z,6820
2018-07-30T06:06:37.427Z,6788
2018-07-30T06:07:37.970Z,6756
2018-07-30T06:08:52.661Z,6724
2018-07-30T06:09:38.133Z,6704
2018-07-30T06:10:38.046Z,6684
2018-07-30T06:11:38.070Z,6664
2018-07-30T06:12:37.837Z,6640
2018-07-30T06:13:52.785Z,6596
2018-07-30T06:14:52.813Z,6564
2018-07-30T06:15:38.177Z,6544
2018-07-30T06:16:38.207Z,6516
2018-07-30T06:17:38.224Z,6488
2018-07-30T06:18:37.746Z,6468
2018-07-30T06:19:38.026Z,6472
2018-07-30T06:20:38.053Z,6496
2018-07-30T06:21:38.338Z,6560
2018-07-30T06:22:38.365Z,6624
2018-07-30T06:23:53.046Z,6700
2018-07-30T06:24:53.073Z,6764
2018-07-30T06:25:53.107Z,6848
2018-07-30T06:26:38.596Z,6920
2018-07-30T06:27:38.236Z,7028
2018-07-30T06:28:38.565Z,7140
2018-07-30T06:29:53.207Z,7248
2018-07-30T06:30:38.584Z,7304
2018-07-30T06:31:38.354Z,7360
2018-07-30T06:32:38.628Z,7412
2018-07-30T06:33:38.396Z,7440
2018-07-30T06:34:38.417Z,7464
2018-07-30T06:36:53.391Z,7512
2018-07-30T06:38:53.757Z,7588
2018-07-30T06:39:38.565Z,7628
2018-07-30T06:40:38.574Z,7680
2018-07-30T06:41:38.608Z,7756
2018-07-30T06:42:38.627Z,7844
2018-07-30T06:44:38.684Z,8036
2018-07-30T06:45:53.631Z,8164
2018-07-30T06:46:38.735Z,8244
2018-07-30T06:47:53.739Z,8372
2018-07-30T06:48:39.055Z,8452
2018-07-30T06:49:38.558Z,8548
2018-07-30T06:50:38.841Z,8624
2018-07-30T06:51:39.126Z,8692
2018-07-30T06:52:38.896Z,8744
2018-07-30T06:53:39.190Z,8796
2018-07-30T06:54:39.210Z,8840
2018-07-30T06:55:38.977Z,8872
2018-07-30T06:56:53.661Z,8896
2018-07-30T06:57:38.770Z,8908
2018-07-30T06:58:39.327Z,8916
2018-07-30T06:59:53.749Z,8928
2018-07-30T07:00:54.031Z,8936
2018-07-30T07:01:53.797Z,8928
2018-07-30T07:02:39.428Z,8924
2018-07-30T07:03:38.930Z,8924
2018-07-30T07:04:39.482Z,8924
2018-07-30T07:05:39.503Z,8932
2018-07-30T07:06:39.532Z,8944
2018-07-30T07:07:54.226Z,8960
2018-07-30T07:08:39.587Z,8968
2018-07-30T07:09:39.612Z,8972
2018-07-30T07:11:39.662Z,9020
2018-07-30T07:12:39.688Z,9072
2018-07-30T07:13:39.714Z,9128
2018-07-30T07:14:39.769Z,9188
2018-07-30T07:15:39.771Z,9252
2018-07-30T07:16:54.341Z,9348
2018-07-30T07:17:39.822Z,9412
2018-07-30T07:18:39.593Z,9524
2018-07-30T07:19:39.881Z,9656
2018-07-30T07:20:40.137Z,9828
2018-07-30T07:21:40.229Z,10044
2018-07-30T07:22:39.977Z,10288
2018-07-30T07:23:54.392Z,10656
2018-07-30T07:24:39.506Z,10952
2018-07-30T07:25:54.700Z,11412
2018-07-30T07:26:40.071Z,11692
2018-07-30T07:27:40.092Z,11964
2018-07-30T07:28:40.127Z,12008
2018-07-30T07:29:40.150Z,12280
2018-07-30T07:30:40.184Z,12468
2018-07-30T07:31:40.203Z,12768
2018-07-30T07:32:39.715Z,13316
2018-07-30T07:33:40.256Z,14620
2018-07-30T07:34:40.306Z,18656
2018-07-30T07:35:40.055Z,24672
2018-07-30T07:36:40.080Z,29792
2018-07-30T07:37:40.366Z,30784
2018-07-30T07:38:40.142Z,34208
2018-07-30T07:39:39.920Z,41280
2018-07-30T07:40:40.193Z,61440
2018-07-30T07:41:40.222Z,39520
2018-07-30T07:43:40.535Z,28960
2018-07-30T07:44:40.307Z,33472
2018-07-30T07:45:40.592Z,30368
2018-07-30T07:46:40.619Z,43392
2018-07-30T07:47:40.392Z,50624
2018-07-30T07:48:55.085Z,45120
2018-07-30T07:49:40.505Z,27488
2018-07-30T07:50:56.055Z,24512
2018-07-30T07:51:40.926Z,24992
2018-07-30T07:52:40.588Z,27552
2018-07-30T07:55:40.889Z,29984
2018-07-30T07:56:40.923Z,32288
2018-07-30T07:57:55.617Z,29152
2018-07-30T07:58:55.639Z,33056
2018-07-30T07:59:41.001Z,34336
2018-07-30T08:00:41.037Z,44800
2018-07-30T08:01:41.070Z,59552
2018-07-30T08:02:41.091Z,76000
2018-07-30T08:03:40.868Z,75232
2018-07-30T08:05:10.494Z,75744
2018-07-30T08:05:41.193Z,73088
2018-07-30T08:06:41.229Z,75808
2018-07-30T08:07:41.246Z,77696
2018-07-30T08:08:41.281Z,71456
2018-07-30T08:09:41.546Z,73152
2018-07-30T08:10:41.349Z,74720
2018-07-30T08:11:41.383Z,73344
2018-07-30T08:12:56.074Z,68960
2018-07-30T08:13:56.111Z,70976
2018-07-30T08:14:41.475Z,74016
2018-07-30T08:15:56.167Z,69312
2018-07-30T08:16:41.600Z,66432
2018-07-30T08:17:41.576Z,67872
2018-07-30T08:18:41.707Z,68608
2018-07-30T08:19:41.649Z,61920
2018-07-30T08:20:56.342Z,66336
2018-07-30T08:21:41.193Z,70464
2018-07-30T08:22:41.742Z,69888
2018-07-30T08:23:41.780Z,67744
2018-07-30T08:24:41.814Z,66272
2018-07-30T08:25:41.847Z,66592
2018-07-30T08:26:41.885Z,67520
2018-07-30T08:27:41.915Z,67008
2018-07-30T08:28:41.953Z,66368
2018-07-30T08:29:42.078Z,64480
2018-07-30T08:30:42.034Z,67712
2018-07-30T08:31:42.058Z,66720
2018-07-30T08:32:41.838Z,65280
2018-07-30T08:33:42.141Z,63712
2018-07-30T08:34:41.908Z,62112
2018-07-30T08:35:42.210Z,63200
2018-07-30T08:36:56.638Z,63008
2018-07-30T08:37:56.934Z,60832
2018-07-30T08:38:42.053Z,58624
2018-07-30T08:39:42.345Z,59424
2018-07-30T08:40:42.130Z,58688
2018-07-30T08:41:42.411Z,56544
2018-07-30T08:42:42.194Z,53472
2018-07-30T08:43:42.486Z,52256
2018-07-30T08:45:42.559Z,51552
2018-07-30T08:46:42.587Z,50336
2018-07-30T08:47:42.625Z,48416
2018-07-30T08:48:42.754Z,40992
2018-07-30T08:49:42.697Z,30048
2018-07-30T08:50:42.736Z,24416
2018-07-30T08:51:56.917Z,23552
2018-07-30T08:52:42.544Z,23328
2018-07-30T08:53:57.503Z,23008
2018-07-30T08:54:42.979Z,22816
2018-07-30T08:55:42.654Z,22656
2018-07-30T08:56:42.948Z,22464
2018-07-30T08:57:42.987Z,22336
2018-07-30T08:58:43.016Z,22208
2018-07-30T08:59:43.051Z,22016
2018-07-30T09:00:42.833Z,21920
2018-07-30T09:01:43.130Z,21760
2018-07-30T09:02:43.159Z,21664
2018-07-30T09:03:43.193Z,21504
2018-07-30T09:04:43.228Z,21312
2018-07-30T09:05:43.263Z,21184
2018-07-30T09:06:43.047Z,21088
2018-07-30T09:07:43.089Z,20896
2018-07-30T09:08:43.151Z,20832
2018-07-30T09:09:43.412Z,20640
2018-07-30T09:10:43.447Z,20512
2018-07-30T09:11:43.530Z,20416
2018-07-30T09:12:44.005Z,20288
2018-07-30T09:13:43.552Z,20224
2018-07-30T09:14:43.588Z,20128
2018-07-30T09:15:43.625Z,20000
2018-07-30T09:16:43.650Z,19872
2018-07-30T09:17:43.691Z,19744
2018-07-30T09:18:43.723Z,19616
2018-07-30T09:19:43.820Z,19520
2018-07-30T09:20:43.799Z,19392
2018-07-30T09:21:43.836Z,19264
2018-07-30T09:22:43.861Z,19168
2018-07-30T09:23:58.560Z,19040
2018-07-30T09:24:43.682Z,18912
2018-07-30T09:25:43.972Z,18848
2018-07-30T09:26:58.458Z,18688
2018-07-30T09:27:44.049Z,18624
2018-07-30T09:28:43.818Z,18464
2018-07-30T09:29:43.849Z,18368
2018-07-30T09:30:44.145Z,18240
2018-07-30T09:31:43.928Z,18112
2018-07-30T09:32:44.560Z,18016
2018-07-30T09:34:44.284Z,17612
2018-07-30T09:36:44.365Z,17380
2018-07-30T09:37:59.057Z,17256
2018-07-30T09:38:44.618Z,17168
2018-07-30T09:39:59.122Z,17004
2018-07-30T09:40:44.491Z,16936
2018-07-30T09:41:59.196Z,16792
2018-07-30T09:42:59.226Z,16656
2018-07-30T09:44:44.998Z,16452
2018-07-30T09:45:59.077Z,16360
2018-07-30T09:46:44.702Z,16296
2018-07-30T09:47:44.736Z,16196
2018-07-30T09:48:44.777Z,16072
2018-07-30T09:49:44.811Z,16068
2018-07-30T09:50:45.080Z,15996
2018-07-30T09:51:44.620Z,15924
2018-07-30T09:52:44.653Z,15832
2018-07-30T09:53:44.944Z,15760
2018-07-30T09:54:44.994Z,15752
2018-07-30T09:55:59.678Z,15700
2018-07-30T09:56:45.071Z,15560
2018-07-30T09:57:44.830Z,15548
2018-07-30T09:58:44.864Z,15544
2018-07-30T09:59:59.561Z,15432
2018-07-30T10:00:44.933Z,15324
2018-07-30T10:01:45.236Z,15268
2018-07-30T10:02:45.267Z,15116
2018-07-30T10:03:45.038Z,15124
2018-07-30T10:04:59.991Z,15100
2018-07-30T10:05:45.381Z,15036
2018-07-30T10:07:00.066Z,14992
2018-07-30T10:07:45.435Z,14972
2018-07-30T10:08:45.484Z,14940
2018-07-30T10:09:45.505Z,14772
2018-07-30T10:10:45.538Z,14696
2018-07-30T10:12:00.239Z,14644
2018-07-30T10:12:45.603Z,14524
2018-07-30T10:14:00.307Z,14524
2018-07-30T10:15:45.453Z,14396
2018-07-30T10:17:00.415Z,14320
2018-07-30T10:17:45.851Z,14300
2018-07-30T10:18:45.880Z,14260
2018-07-30T10:19:45.850Z,14108
2018-07-30T10:20:45.918Z,14012
2018-07-30T10:22:00.582Z,13924
2018-07-30T10:23:00.359Z,13860
2018-07-30T10:23:46.302Z,13828
2018-07-30T10:24:45.508Z,13752
2018-07-30T10:25:45.805Z,13692
2018-07-30T10:27:00.770Z,13648
2018-07-30T10:27:46.135Z,13564
2018-07-30T10:28:46.162Z,13540
2018-07-30T10:29:46.192Z,13564
2018-07-30T10:30:46.736Z,13448
2018-07-30T10:31:46.012Z,13344
2018-07-30T10:35:01.041Z,13292
2018-07-30T10:35:46.402Z,13244
2018-07-30T10:37:01.126Z,13156
2018-07-30T10:37:46.511Z,13096
2018-07-30T10:38:46.245Z,13040
2018-07-30T10:40:01.384Z,12976
2018-07-30T10:40:46.057Z,12916
2018-07-30T10:42:01.271Z,12900
2018-07-30T10:42:46.390Z,12852
2018-07-30T10:43:46.412Z,12792
2018-07-30T10:44:46.447Z,12712
2018-07-30T10:45:46.479Z,12668
2018-07-30T10:46:46.780Z,12688
2018-07-30T10:47:46.546Z,12708
2018-07-30T10:48:46.795Z,12676
2018-07-30T10:49:46.923Z,12536
2018-07-30T10:50:46.651Z,12416
2018-07-30T10:52:01.100Z,12328
2018-07-30T10:52:46.982Z,12288
2018-07-30T10:54:01.723Z,12168
2018-07-30T10:54:46.787Z,12144
2018-07-30T10:55:46.853Z,12116
2018-07-30T10:56:46.857Z,12060
2018-07-30T10:57:46.881Z,11988
2018-07-30T10:59:01.586Z,11916
2018-07-30T11:00:01.619Z,11884
2018-07-30T11:00:47.271Z,11852
2018-07-30T11:01:47.016Z,11836
2018-07-30T11:03:47.342Z,11780
2018-07-30T11:04:47.118Z,11764
2018-07-30T11:05:47.405Z,11692
2018-07-30T11:06:46.922Z,11648
2018-07-30T11:08:01.886Z,11516
2018-07-30T11:08:47.251Z,11416
2018-07-30T11:09:47.910Z,11244
2018-07-30T11:10:47.330Z,11424
2018-07-30T11:11:47.395Z,11376
2018-07-30T11:12:47.376Z,10912
2018-07-30T11:14:02.078Z,11032
2018-07-30T11:15:02.379Z,10624
2018-07-30T11:15:47.475Z,10652
2018-07-30T11:16:47.765Z,10440
2018-07-30T11:17:47.804Z,10228
2018-07-30T11:18:47.832Z,10048
2018-07-30T11:19:47.601Z,8976
2018-07-30T11:21:48.195Z,8536
2018-07-30T11:22:47.709Z,9016
2018-07-30T11:23:47.999Z,9064
2018-07-30T11:25:02.428Z,8928
2018-07-30T11:26:48.089Z,8744
2018-07-30T11:27:47.868Z,8624
2018-07-30T11:28:48.157Z,8436
2018-07-30T11:29:47.927Z,8296
2018-07-30T11:31:02.880Z,8264
2018-07-30T11:31:47.998Z,8152
2018-07-30T11:32:48.281Z,8028
2018-07-30T11:34:03.120Z,7884
2018-07-30T11:34:48.356Z,7764
2018-07-30T11:35:48.409Z,7672
2018-07-30T11:36:47.895Z,7588
2018-07-30T11:37:48.184Z,7492
2018-07-30T11:39:03.143Z,7396
2018-07-30T11:39:48.311Z,7324
2018-07-30T11:40:48.281Z,7232
2018-07-30T11:41:48.569Z,7160
2018-07-30T11:42:48.411Z,7100
2018-07-30T11:43:49.418Z,7068
2018-07-30T11:44:48.671Z,7124
2018-07-30T11:45:48.436Z,7232
2018-07-30T11:47:03.134Z,7320
2018-07-30T11:47:48.252Z,7336
2018-07-30T11:49:03.263Z,7340
2018-07-30T11:49:48.876Z,7344
2018-07-30T11:50:48.345Z,7304
2018-07-30T11:51:48.679Z,7264
2018-07-30T11:52:48.663Z,7240
2018-07-30T11:53:48.750Z,7304
2018-07-30T11:54:48.465Z,7380
2018-07-30T11:55:48.765Z,7408
2018-07-30T11:57:03.718Z,7324
2018-07-30T11:57:48.829Z,7252
2018-07-30T11:58:49.109Z,7156
2018-07-30T11:59:49.145Z,7136
2018-07-30T12:00:48.920Z,7112
2018-07-30T12:02:03.870Z,7044
2018-07-30T12:02:49.237Z,6980
2018-07-30T12:03:49.021Z,6912
2018-07-30T12:07:03.772Z,6700
2018-07-30T12:07:49.397Z,6652
2018-07-30T12:08:49.585Z,6620
2018-07-30T12:09:49.218Z,6576
2018-07-30T12:10:49.527Z,6564
2018-07-30T12:11:49.519Z,6512
2018-07-30T12:12:49.559Z,6500
2018-07-30T12:13:49.596Z,6476
2018-07-30T12:14:49.621Z,6448
2018-07-30T12:15:49.645Z,6432
2018-07-30T12:16:49.785Z,6420
2018-07-30T12:17:49.457Z,6428
2018-07-30T12:18:49.548Z,6416
2018-07-30T12:19:49.786Z,6400
2018-07-30T12:20:49.982Z,6384
2018-07-30T12:21:49.479Z,6384
2018-07-30T12:22:49.352Z,6392
2018-07-30T12:24:49.934Z,6336
2018-07-30T12:25:49.705Z,6316
2018-07-30T12:27:04.412Z,6320
2018-07-30T12:27:50.049Z,6312
2018-07-30T12:28:50.058Z,6324
2018-07-30T12:29:49.831Z,6324
2018-07-30T12:30:50.284Z,6336
2018-07-30T12:31:50.157Z,6352
2018-07-30T12:32:49.924Z,6376
2018-07-30T12:34:04.944Z,6376
2018-07-30T12:35:04.912Z,6344
2018-07-30T12:35:50.286Z,6348
2018-07-30T12:37:04.972Z,6332
2018-07-30T12:37:50.360Z,6304
2018-07-30T12:38:50.165Z,6304
2018-07-30T12:39:50.183Z,6296
2018-07-30T12:40:50.433Z,6264
2018-07-30T12:41:50.305Z,6288
2018-07-30T12:42:50.241Z,6312
2018-07-30T12:44:50.387Z,6336
2018-07-30T12:45:50.335Z,6344
2018-07-30T12:46:50.390Z,6332
2018-07-30T12:47:50.506Z,6336
2018-07-30T12:48:50.755Z,6352
2018-07-30T12:50:05.382Z,6412
2018-07-30T12:50:50.499Z,6440
2018-07-30T12:51:50.787Z,6480
2018-07-30T12:53:05.474Z,6540
2018-07-30T12:53:50.591Z,6544
2018-07-30T12:54:50.927Z,6556
2018-07-30T12:55:50.649Z,6568
2018-07-30T12:57:05.345Z,6628
2018-07-30T12:58:05.375Z,6660
2018-07-30T12:58:51.002Z,6640
2018-07-30T12:59:50.515Z,6652
2018-07-30T13:00:51.060Z,6688
2018-07-30T13:01:51.097Z,6720
2018-07-30T13:02:51.351Z,6748
2018-07-30T13:03:51.155Z,6784
2018-07-30T13:04:51.192Z,6828
2018-07-30T13:06:05.623Z,6868
2018-07-30T13:07:05.916Z,6920
2018-07-30T13:07:51.278Z,6900
2018-07-30T13:08:51.316Z,6744
2018-07-30T13:09:51.090Z,6792
2018-07-30T13:10:51.386Z,6736
2018-07-30T13:11:51.146Z,6996
2018-07-30T13:12:51.443Z,6088
2018-07-30T13:13:51.420Z,6976
2018-07-30T13:14:51.293Z,6648
2018-07-30T13:15:51.290Z,6920
2018-07-30T13:16:51.571Z,6552
2018-07-30T13:18:06.013Z,6780
2018-07-30T13:18:51.627Z,6184
2018-07-30T13:19:51.497Z,6476
2018-07-30T13:20:51.469Z,5976
2018-07-30T13:22:21.048Z,5664
2018-07-30T13:22:51.493Z,5264
2018-07-30T13:24:06.189Z,5136
2018-07-30T13:24:51.814Z,5592
2018-07-30T13:25:51.849Z,5988
2018-07-30T13:26:51.894Z,6060
2018-07-30T13:27:51.909Z,6960
2018-07-30T13:28:51.426Z,7004
2018-07-30T13:29:51.713Z,7564
2018-07-30T13:30:52.001Z,6596
2018-07-30T13:32:06.695Z,7772
2018-07-30T13:32:52.010Z,6960
2018-07-30T13:33:51.639Z,6012
2018-07-30T13:34:52.129Z,7736
2018-07-30T13:35:52.164Z,8096
2018-07-30T13:37:06.337Z,7768
2018-07-30T13:37:52.221Z,7504
2018-07-30T13:38:52.256Z,8028
2018-07-30T13:39:52.294Z,6292
2018-07-30T13:41:52.346Z,6936
2018-07-30T13:43:52.155Z,6480
2018-07-30T13:44:52.188Z,6716
2018-07-30T13:45:52.215Z,6912
2018-07-30T13:46:52.243Z,6340
2018-07-30T13:48:07.193Z,5472
2018-07-30T13:48:52.308Z,6152
2018-07-30T13:49:52.342Z,5912
2018-07-30T13:50:52.631Z,6108
2018-07-30T13:51:52.400Z,6732
2018-07-30T13:52:52.699Z,8372
2018-07-30T13:53:52.725Z,7616
2018-07-30T13:54:52.787Z,6712
2018-07-30T13:55:52.787Z,7164
2018-07-30T13:56:52.825Z,8332
2018-07-30T13:58:07.504Z,8292
2018-07-30T13:58:52.622Z,7460
2018-07-30T13:59:52.702Z,7676
2018-07-30T14:00:52.938Z,7620
2018-07-30T14:02:07.669Z,7576
2018-07-30T14:02:52.998Z,7548
2018-07-30T14:03:53.032Z,7540
2018-07-30T14:04:53.060Z,8680
2018-07-30T14:05:53.091Z,8648
2018-07-30T14:06:53.483Z,8020
2018-07-30T14:07:52.638Z,8440
2018-07-30T14:09:07.591Z,8388
2018-07-30T14:10:07.372Z,8252
2018-07-30T14:10:52.989Z,8160
2018-07-30T14:11:53.282Z,8064
2018-07-30T14:12:53.765Z,8036
2018-07-30T14:13:53.093Z,8064